sensor_id;sensor_type;location;lat;lon;timestamp;temperature;humidity
27781;DHT22;15167;1.318;103.762;2023-08-08T00:01:18;28.40;1.00
27781;DHT22;15167;1.318;103.762;2023-08-08T00:03:45;28.50;1.00
27781;DHT22;15167;1.318;103.762;2023-08-08T00:06:12;28.50;1.00
27781;DHT22;15167;1.318;103.762;2023-08-08T00:08:38;28.60;1.00
27781;DHT22;15167;1.318;103.762;2023-08-08T00:11:05;28.60;1.00
27781;DHT22;15167;1.318;103.762;2023-08-08T00:13:32;28.60;1.00
27781;DHT22;15167;1.318;103.762;2023-08-08T00:15:58;28.60;99.90
27781;DHT22;15167;1.318;103.762;2023-08-08T00:18:25;28.60;99.90
27781;DHT22;15167;1.318;103.762;2023-08-08T00:20:51;28.60;99.90
27781;DHT22;15167;1.318;103.762;2023-08-08T00:23:18;28.70;99.90
27781;DHT22;15167;1.318;103.762;2023-08-08T00:25:45;28.70;99.90
27781;DHT22;15167;1.318;103.762;2023-08-08T00:28:16;28.70;99.90
27781;DHT22;15167;1.318;103.762;2023-08-08T00:30:44;28.80;99.90
27781;DHT22;15167;1.318;103.762;2023-08-08T00:33:13;28.80;99.90
27781;DHT22;15167;1.318;103.762;2023-08-08T00:35:39;28.80;99.90
27781;DHT22;15167;1.318;103.762;2023-08-08T00:38:06;28.80;99.90
27781;DHT22;15167;1.318;103.762;2023-08-08T00:40:32;28.90;99.90
27781;DHT22;15167;1.318;103.762;2023-08-08T00:42:59;28.90;99.90
27781;DHT22;15167;1.318;103.762;2023-08-08T00:45:25;28.90;99.90
27781;DHT22;15167;1.318;103.762;2023-08-08T00:47:52;28.90;99.90
27781;DHT22;15167;1.318;103.762;2023-08-08T00:50:20;28.90;99.90
27781;DHT22;15167;1.318;103.762;2023-08-08T00:52:47;28.90;99.90
27781;DHT22;15167;1.318;103.762;2023-08-08T00:55:14;29.00;99.90
27781;DHT22;15167;1.318;103.762;2023-08-08T00:57:41;29.00;99.90
27781;DHT22;15167;1.318;103.762;2023-08-08T01:00:08;29.10;95.40
27781;DHT22;15167;1.318;103.762;2023-08-08T01:02:36;29.00;97.50
27781;DHT22;15167;1.318;103.762;2023-08-08T01:05:04;29.10;92.60
27781;DHT22;15167;1.318;103.762;2023-08-08T01:10:41;29.20;1.00
27781;DHT22;15167;1.318;103.762;2023-08-08T01:13:17;29.20;1.00
27781;DHT22;15167;1.318;103.762;2023-08-08T01:15:47;29.30;1.00
27781;DHT22;15167;1.318;103.762;2023-08-08T01:18:15;29.40;1.00
27781;DHT22;15167;1.318;103.762;2023-08-08T01:20:43;29.40;1.00
27781;DHT22;15167;1.318;103.762;2023-08-08T01:26:21;29.60;99.90
27781;DHT22;15167;1.318;103.762;2023-08-08T01:28:48;29.70;99.90
27781;DHT22;15167;1.318;103.762;2023-08-08T01:31:18;29.80;99.90
27781;DHT22;15167;1.318;103.762;2023-08-08T01:33:44;29.90;99.90
27781;DHT22;15167;1.318;103.762;2023-08-08T01:36:25;30.00;99.90
27781;DHT22;15167;1.318;103.762;2023-08-08T01:38:55;30.20;99.90
27781;DHT22;15167;1.318;103.762;2023-08-08T01:41:26;30.30;99.90
27781;DHT22;15167;1.318;103.762;2023-08-08T01:43:53;30.30;99.90
27781;DHT22;15167;1.318;103.762;2023-08-08T01:46:19;30.30;99.90
27781;DHT22;15167;1.318;103.762;2023-08-08T01:48:46;30.40;99.90
27781;DHT22;15167;1.318;103.762;2023-08-08T01:51:13;30.50;99.90
27781;DHT22;15167;1.318;103.762;2023-08-08T01:53:39;30.50;99.90
27781;DHT22;15167;1.318;103.762;2023-08-08T01:56:06;30.40;99.90
27781;DHT22;15167;1.318;103.762;2023-08-08T01:58:33;30.30;99.90
27781;DHT22;15167;1.318;103.762;2023-08-08T02:00:59;30.30;99.90
27781;DHT22;15167;1.318;103.762;2023-08-08T02:03:26;30.20;99.90
27781;DHT22;15167;1.318;103.762;2023-08-08T02:05:52;30.10;99.90
27781;DHT22;15167;1.318;103.762;2023-08-08T02:08:19;30.10;99.90
27781;DHT22;15167;1.318;103.762;2023-08-08T02:10:45;30.10;99.90
27781;DHT22;15167;1.318;103.762;2023-08-08T02:13:12;30.10;99.90
27781;DHT22;15167;1.318;103.762;2023-08-08T02:15:38;30.10;99.90
27781;DHT22;15167;1.318;103.762;2023-08-08T02:18:05;30.20;99.90
27781;DHT22;15167;1.318;103.762;2023-08-08T02:20:33;30.30;99.90
27781;DHT22;15167;1.318;103.762;2023-08-08T02:22:59;30.60;75.00
27781;DHT22;15167;1.318;103.762;2023-08-08T02:25:26;30.60;53.20
27781;DHT22;15167;1.318;103.762;2023-08-08T02:27:53;30.60;59.50
27781;DHT22;15167;1.318;103.762;2023-08-08T02:30:20;30.70;48.40
27781;DHT22;15167;1.318;103.762;2023-08-08T02:32:46;30.80;29.20
27781;DHT22;15167;1.318;103.762;2023-08-08T02:35:13;30.90;22.80
27781;DHT22;15167;1.318;103.762;2023-08-08T02:37:40;31.00;1.00
27781;DHT22;15167;1.318;103.762;2023-08-08T02:40:07;31.10;1.00
27781;DHT22;15167;1.318;103.762;2023-08-08T02:42:34;31.20;1.00
27781;DHT22;15167;1.318;103.762;2023-08-08T02:45:00;31.20;1.00
27781;DHT22;15167;1.318;103.762;2023-08-08T02:47:27;31.20;1.00
27781;DHT22;15167;1.318;103.762;2023-08-08T02:49:53;31.00;1.00
27781;DHT22;15167;1.318;103.762;2023-08-08T02:52:20;31.00;1.00
27781;DHT22;15167;1.318;103.762;2023-08-08T02:54:46;31.10;1.00
27781;DHT22;15167;1.318;103.762;2023-08-08T02:57:13;31.20;1.00
27781;DHT22;15167;1.318;103.762;2023-08-08T02:59:40;31.20;99.90
27781;DHT22;15167;1.318;103.762;2023-08-08T03:02:06;31.30;99.90
27781;DHT22;15167;1.318;103.762;2023-08-08T03:04:33;31.30;99.90
27781;DHT22;15167;1.318;103.762;2023-08-08T03:07:00;31.40;99.90
27781;DHT22;15167;1.318;103.762;2023-08-08T03:09:30;31.40;99.90
27781;DHT22;15167;1.318;103.762;2023-08-08T03:11:57;31.50;99.90
27781;DHT22;15167;1.318;103.762;2023-08-08T03:14:23;31.50;99.90
27781;DHT22;15167;1.318;103.762;2023-08-08T03:16:50;31.50;99.90
27781;DHT22;15167;1.318;103.762;2023-08-08T03:19:16;31.60;99.90
27781;DHT22;15167;1.318;103.762;2023-08-08T03:21:43;31.60;99.90
27781;DHT22;15167;1.318;103.762;2023-08-08T03:24:09;31.60;99.90
27781;DHT22;15167;1.318;103.762;2023-08-08T03:26:36;31.70;99.90
27781;DHT22;15167;1.318;103.762;2023-08-08T03:29:03;31.70;99.90
27781;DHT22;15167;1.318;103.762;2023-08-08T03:31:29;31.80;99.90
27781;DHT22;15167;1.318;103.762;2023-08-08T03:33:56;31.90;99.90
27781;DHT22;15167;1.318;103.762;2023-08-08T03:36:22;31.80;99.90
27781;DHT22;15167;1.318;103.762;2023-08-08T03:38:49;31.70;99.90
27781;DHT22;15167;1.318;103.762;2023-08-08T03:41:16;31.60;99.90
27781;DHT22;15167;1.318;103.762;2023-08-08T03:43:42;31.70;99.90
27781;DHT22;15167;1.318;103.762;2023-08-08T03:46:09;31.80;99.90
27781;DHT22;15167;1.318;103.762;2023-08-08T03:48:38;32.00;99.90
27781;DHT22;15167;1.318;103.762;2023-08-08T03:51:04;32.20;99.90
27781;DHT22;15167;1.318;103.762;2023-08-08T03:53:33;32.40;99.90
27781;DHT22;15167;1.318;103.762;2023-08-08T03:55:59;32.50;99.90
27781;DHT22;15167;1.318;103.762;2023-08-08T03:58:26;32.50;99.90
27781;DHT22;15167;1.318;103.762;2023-08-08T04:00:52;32.60;99.90
27781;DHT22;15167;1.318;103.762;2023-08-08T04:03:19;32.50;99.90
27781;DHT22;15167;1.318;103.762;2023-08-08T04:05:46;32.40;99.90
27781;DHT22;15167;1.318;103.762;2023-08-08T04:08:13;32.40;99.90
27781;DHT22;15167;1.318;103.762;2023-08-08T04:10:40;32.30;99.90
27781;DHT22;15167;1.318;103.762;2023-08-08T04:13:07;32.30;99.90
27781;DHT22;15167;1.318;103.762;2023-08-08T04:15:33;32.30;99.90
27781;DHT22;15167;1.318;103.762;2023-08-08T04:18:00;32.50;99.90
27781;DHT22;15167;1.318;103.762;2023-08-08T04:20:26;32.60;99.90
27781;DHT22;15167;1.318;103.762;2023-08-08T04:22:53;32.60;99.90
27781;DHT22;15167;1.318;103.762;2023-08-08T04:25:20;32.80;99.90
27781;DHT22;15167;1.318;103.762;2023-08-08T04:27:47;33.00;99.90
27781;DHT22;15167;1.318;103.762;2023-08-08T04:30:14;32.80;99.90
27781;DHT22;15167;1.318;103.762;2023-08-08T04:32:40;32.70;99.90
27781;DHT22;15167;1.318;103.762;2023-08-08T04:35:07;32.60;99.90
27781;DHT22;15167;1.318;103.762;2023-08-08T04:37:33;32.50;99.90
27781;DHT22;15167;1.318;103.762;2023-08-08T04:40:00;32.50;99.90
27781;DHT22;15167;1.318;103.762;2023-08-08T04:42:26;32.50;99.90
27781;DHT22;15167;1.318;103.762;2023-08-08T04:44:53;32.60;99.90
27781;DHT22;15167;1.318;103.762;2023-08-08T04:47:19;32.60;99.90
27781;DHT22;15167;1.318;103.762;2023-08-08T04:49:46;32.60;99.90
27781;DHT22;15167;1.318;103.762;2023-08-08T04:52:12;32.50;99.90
27781;DHT22;15167;1.318;103.762;2023-08-08T04:54:39;32.50;99.90
27781;DHT22;15167;1.318;103.762;2023-08-08T04:57:06;32.50;99.90
27781;DHT22;15167;1.318;103.762;2023-08-08T04:59:32;32.40;99.90
27781;DHT22;15167;1.318;103.762;2023-08-08T05:01:59;32.20;99.90
27781;DHT22;15167;1.318;103.762;2023-08-08T05:04:25;32.20;99.90
27781;DHT22;15167;1.318;103.762;2023-08-08T05:06:52;32.10;99.90
27781;DHT22;15167;1.318;103.762;2023-08-08T05:09:18;32.00;99.90
27781;DHT22;15167;1.318;103.762;2023-08-08T05:11:46;32.00;99.90
27781;DHT22;15167;1.318;103.762;2023-08-08T05:14:13;32.00;99.90
27781;DHT22;15167;1.318;103.762;2023-08-08T05:16:39;32.10;99.90
27781;DHT22;15167;1.318;103.762;2023-08-08T05:19:06;32.20;99.90
27781;DHT22;15167;1.318;103.762;2023-08-08T05:21:34;32.30;99.90
27781;DHT22;15167;1.318;103.762;2023-08-08T05:24:00;32.50;99.90
27781;DHT22;15167;1.318;103.762;2023-08-08T05:26:27;32.80;99.90
27781;DHT22;15167;1.318;103.762;2023-08-08T05:28:54;32.70;99.90
27781;DHT22;15167;1.318;103.762;2023-08-08T05:31:20;32.80;99.90
27781;DHT22;15167;1.318;103.762;2023-08-08T05:33:48;32.80;99.90
27781;DHT22;15167;1.318;103.762;2023-08-08T05:36:15;32.60;99.90
27781;DHT22;15167;1.318;103.762;2023-08-08T05:38:42;32.50;99.90
27781;DHT22;15167;1.318;103.762;2023-08-08T05:41:08;32.40;99.90
27781;DHT22;15167;1.318;103.762;2023-08-08T05:43:35;32.20;99.90
27781;DHT22;15167;1.318;103.762;2023-08-08T05:46:02;32.20;99.90
27781;DHT22;15167;1.318;103.762;2023-08-08T05:48:29;32.30;99.90
27781;DHT22;15167;1.318;103.762;2023-08-08T05:50:55;32.40;99.90
27781;DHT22;15167;1.318;103.762;2023-08-08T05:53:24;32.50;99.90
27781;DHT22;15167;1.318;103.762;2023-08-08T05:55:51;32.70;99.90
27781;DHT22;15167;1.318;103.762;2023-08-08T05:58:18;32.80;99.90
27781;DHT22;15167;1.318;103.762;2023-08-08T06:00:45;32.80;99.90
27781;DHT22;15167;1.318;103.762;2023-08-08T06:03:11;32.80;99.90
27781;DHT22;15167;1.318;103.762;2023-08-08T06:05:38;32.90;99.90
27781;DHT22;15167;1.318;103.762;2023-08-08T06:08:04;33.10;99.90
27781;DHT22;15167;1.318;103.762;2023-08-08T06:10:33;33.30;99.90
27781;DHT22;15167;1.318;103.762;2023-08-08T06:13:00;33.50;99.90
27781;DHT22;15167;1.318;103.762;2023-08-08T06:15:27;33.40;99.90
27781;DHT22;15167;1.318;103.762;2023-08-08T06:17:53;33.70;99.90
27781;DHT22;15167;1.318;103.762;2023-08-08T06:20:20;33.90;99.90
27781;DHT22;15167;1.318;103.762;2023-08-08T06:22:48;34.20;99.10
27781;DHT22;15167;1.318;103.762;2023-08-08T06:25:15;34.30;94.90
27781;DHT22;15167;1.318;103.762;2023-08-08T06:27:41;34.10;94.90
27781;DHT22;15167;1.318;103.762;2023-08-08T06:30:08;33.80;94.20
27781;DHT22;15167;1.318;103.762;2023-08-08T06:32:35;33.90;98.10
27781;DHT22;15167;1.318;103.762;2023-08-08T06:35:01;33.80;99.90
27781;DHT22;15167;1.318;103.762;2023-08-08T06:37:28;33.50;99.90
27781;DHT22;15167;1.318;103.762;2023-08-08T06:39:55;33.30;99.90
27781;DHT22;15167;1.318;103.762;2023-08-08T06:42:21;33.00;99.90
27781;DHT22;15167;1.318;103.762;2023-08-08T06:44:48;32.80;99.90
27781;DHT22;15167;1.318;103.762;2023-08-08T06:47:14;32.50;99.90
27781;DHT22;15167;1.318;103.762;2023-08-08T06:49:41;32.60;99.90
27781;DHT22;15167;1.318;103.762;2023-08-08T06:52:08;32.80;99.90
27781;DHT22;15167;1.318;103.762;2023-08-08T06:54:35;33.00;99.90
27781;DHT22;15167;1.318;103.762;2023-08-08T06:57:01;33.20;99.90
27781;DHT22;15167;1.318;103.762;2023-08-08T06:59:28;33.30;99.90
27781;DHT22;15167;1.318;103.762;2023-08-08T07:01:55;33.20;99.90
27781;DHT22;15167;1.318;103.762;2023-08-08T07:04:22;33.20;99.90
27781;DHT22;15167;1.318;103.762;2023-08-08T07:06:49;33.00;99.90
27781;DHT22;15167;1.318;103.762;2023-08-08T07:09:15;32.80;99.90
27781;DHT22;15167;1.318;103.762;2023-08-08T07:11:42;32.60;99.90
27781;DHT22;15167;1.318;103.762;2023-08-08T07:14:08;32.40;99.90
27781;DHT22;15167;1.318;103.762;2023-08-08T07:16:35;32.20;99.90
27781;DHT22;15167;1.318;103.762;2023-08-08T07:19:01;32.00;99.90
27781;DHT22;15167;1.318;103.762;2023-08-08T07:21:28;31.90;99.90
27781;DHT22;15167;1.318;103.762;2023-08-08T07:23:55;31.90;99.90
27781;DHT22;15167;1.318;103.762;2023-08-08T07:26:23;31.90;99.90
27781;DHT22;15167;1.318;103.762;2023-08-08T07:28:49;32.00;99.90
27781;DHT22;15167;1.318;103.762;2023-08-08T07:31:16;32.00;99.90
27781;DHT22;15167;1.318;103.762;2023-08-08T07:33:43;32.10;99.90
27781;DHT22;15167;1.318;103.762;2023-08-08T07:36:09;32.20;99.90
27781;DHT22;15167;1.318;103.762;2023-08-08T07:38:36;32.20;99.90
27781;DHT22;15167;1.318;103.762;2023-08-08T07:41:04;32.20;99.90
27781;DHT22;15167;1.318;103.762;2023-08-08T07:43:30;32.20;99.90
27781;DHT22;15167;1.318;103.762;2023-08-08T07:45:57;32.10;99.90
27781;DHT22;15167;1.318;103.762;2023-08-08T07:48:23;31.90;99.90
27781;DHT22;15167;1.318;103.762;2023-08-08T07:50:50;31.70;99.90
27781;DHT22;15167;1.318;103.762;2023-08-08T07:53:16;31.50;99.90
27781;DHT22;15167;1.318;103.762;2023-08-08T07:55:43;31.50;99.90
27781;DHT22;15167;1.318;103.762;2023-08-08T07:58:09;31.30;99.90
27781;DHT22;15167;1.318;103.762;2023-08-08T08:00:36;31.10;99.90
27781;DHT22;15167;1.318;103.762;2023-08-08T08:03:04;31.00;99.90
27781;DHT22;15167;1.318;103.762;2023-08-08T08:05:31;31.10;99.90
27781;DHT22;15167;1.318;103.762;2023-08-08T08:07:58;31.20;99.90
27781;DHT22;15167;1.318;103.762;2023-08-08T08:10:24;31.30;99.90
27781;DHT22;15167;1.318;103.762;2023-08-08T08:12:51;31.20;99.90
27781;DHT22;15167;1.318;103.762;2023-08-08T08:15:24;31.30;99.90
27781;DHT22;15167;1.318;103.762;2023-08-08T08:17:51;31.30;99.90
27781;DHT22;15167;1.318;103.762;2023-08-08T08:20:18;31.30;99.90
27781;DHT22;15167;1.318;103.762;2023-08-08T08:22:45;31.30;99.90
27781;DHT22;15167;1.318;103.762;2023-08-08T08:25:12;31.40;99.90
27781;DHT22;15167;1.318;103.762;2023-08-08T08:27:39;31.40;99.90
27781;DHT22;15167;1.318;103.762;2023-08-08T08:30:07;31.30;99.90
27781;DHT22;15167;1.318;103.762;2023-08-08T08:32:37;31.30;99.90
27781;DHT22;15167;1.318;103.762;2023-08-08T08:35:04;31.20;99.90
27781;DHT22;15167;1.318;103.762;2023-08-08T08:37:32;31.30;99.90
27781;DHT22;15167;1.318;103.762;2023-08-08T08:39:59;31.20;99.90
27781;DHT22;15167;1.318;103.762;2023-08-08T08:42:30;31.20;99.90
27781;DHT22;15167;1.318;103.762;2023-08-08T08:44:58;31.20;99.90
27781;DHT22;15167;1.318;103.762;2023-08-08T08:47:26;31.20;99.90
27781;DHT22;15167;1.318;103.762;2023-08-08T08:49:55;31.20;99.90
27781;DHT22;15167;1.318;103.762;2023-08-08T08:52:23;31.20;99.90
27781;DHT22;15167;1.318;103.762;2023-08-08T08:54:53;31.30;99.90
27781;DHT22;15167;1.318;103.762;2023-08-08T08:57:23;31.30;99.90
27781;DHT22;15167;1.318;103.762;2023-08-08T08:59:50;31.30;99.90
27781;DHT22;15167;1.318;103.762;2023-08-08T09:02:18;31.30;99.90
27781;DHT22;15167;1.318;103.762;2023-08-08T09:04:45;31.40;99.90
27781;DHT22;15167;1.318;103.762;2023-08-08T09:07:12;31.40;99.90
27781;DHT22;15167;1.318;103.762;2023-08-08T09:09:42;31.40;99.90
27781;DHT22;15167;1.318;103.762;2023-08-08T09:12:09;31.40;99.90
27781;DHT22;15167;1.318;103.762;2023-08-08T09:14:40;31.50;99.90
27781;DHT22;15167;1.318;103.762;2023-08-08T09:17:15;31.40;99.90
27781;DHT22;15167;1.318;103.762;2023-08-08T09:19:45;31.30;99.90
27781;DHT22;15167;1.318;103.762;2023-08-08T09:22:13;31.20;99.90
27781;DHT22;15167;1.318;103.762;2023-08-08T09:24:41;31.20;99.90
27781;DHT22;15167;1.318;103.762;2023-08-08T09:27:08;31.20;99.90
27781;DHT22;15167;1.318;103.762;2023-08-08T09:29:36;31.10;99.90
27781;DHT22;15167;1.318;103.762;2023-08-08T09:32:03;31.10;99.90
27781;DHT22;15167;1.318;103.762;2023-08-08T09:34:31;31.10;99.90
27781;DHT22;15167;1.318;103.762;2023-08-08T09:36:58;31.00;99.90
27781;DHT22;15167;1.318;103.762;2023-08-08T09:39:26;31.00;99.90
27781;DHT22;15167;1.318;103.762;2023-08-08T09:41:55;31.10;99.90
27781;DHT22;15167;1.318;103.762;2023-08-08T09:44:26;31.10;99.90
27781;DHT22;15167;1.318;103.762;2023-08-08T09:46:56;31.00;99.90
27781;DHT22;15167;1.318;103.762;2023-08-08T09:49:23;31.00;99.90
27781;DHT22;15167;1.318;103.762;2023-08-08T09:51:50;31.00;99.90
27781;DHT22;15167;1.318;103.762;2023-08-08T09:54:17;31.00;99.90
27781;DHT22;15167;1.318;103.762;2023-08-08T09:56:44;31.10;99.90
27781;DHT22;15167;1.318;103.762;2023-08-08T09:59:10;31.00;99.90
27781;DHT22;15167;1.318;103.762;2023-08-08T10:01:40;30.70;1.00
27781;DHT22;15167;1.318;103.762;2023-08-08T10:04:07;30.50;1.00
27781;DHT22;15167;1.318;103.762;2023-08-08T10:06:34;30.50;1.00
27781;DHT22;15167;1.318;103.762;2023-08-08T10:09:02;30.50;1.00
27781;DHT22;15167;1.318;103.762;2023-08-08T10:11:30;30.40;1.00
27781;DHT22;15167;1.318;103.762;2023-08-08T10:14:02;30.30;8.70
27781;DHT22;15167;1.318;103.762;2023-08-08T10:16:32;30.30;57.00
27781;DHT22;15167;1.318;103.762;2023-08-08T10:19:03;30.20;99.90
27781;DHT22;15167;1.318;103.762;2023-08-08T10:21:35;30.20;99.90
27781;DHT22;15167;1.318;103.762;2023-08-08T10:24:09;30.10;99.90
27781;DHT22;15167;1.318;103.762;2023-08-08T10:26:56;29.80;99.90
27781;DHT22;15167;1.318;103.762;2023-08-08T10:29:26;29.80;99.90
27781;DHT22;15167;1.318;103.762;2023-08-08T10:32:04;29.70;99.90
27781;DHT22;15167;1.318;103.762;2023-08-08T10:34:39;29.70;99.90
27781;DHT22;15167;1.318;103.762;2023-08-08T10:37:12;29.70;99.90
27781;DHT22;15167;1.318;103.762;2023-08-08T10:39:54;29.70;1.00
27781;DHT22;15167;1.318;103.762;2023-08-08T10:42:23;29.70;1.00
27781;DHT22;15167;1.318;103.762;2023-08-08T10:44:58;29.70;1.00
27781;DHT22;15167;1.318;103.762;2023-08-08T10:47:35;29.50;1.00
27781;DHT22;15167;1.318;103.762;2023-08-08T10:50:07;29.50;1.00
27781;DHT22;15167;1.318;103.762;2023-08-08T10:52:52;29.50;1.00
27781;DHT22;15167;1.318;103.762;2023-08-08T10:55:24;29.50;1.00
27781;DHT22;15167;1.318;103.762;2023-08-08T10:58:13;29.50;1.00
27781;DHT22;15167;1.318;103.762;2023-08-08T11:00:45;29.50;1.00
27781;DHT22;15167;1.318;103.762;2023-08-08T11:03:12;29.50;1.00
27781;DHT22;15167;1.318;103.762;2023-08-08T11:05:39;29.50;1.00
27781;DHT22;15167;1.318;103.762;2023-08-08T11:08:10;29.50;99.90
27781;DHT22;15167;1.318;103.762;2023-08-08T11:10:38;29.50;99.90
27781;DHT22;15167;1.318;103.762;2023-08-08T11:13:06;29.50;99.90
27781;DHT22;15167;1.318;103.762;2023-08-08T11:15:34;29.50;99.90
27781;DHT22;15167;1.318;103.762;2023-08-08T11:18:02;29.50;99.90
27781;DHT22;15167;1.318;103.762;2023-08-08T11:20:33;29.50;99.90
27781;DHT22;15167;1.318;103.762;2023-08-08T11:23:00;29.50;99.90
27781;DHT22;15167;1.318;103.762;2023-08-08T11:25:28;29.40;99.90
27781;DHT22;15167;1.318;103.762;2023-08-08T11:27:56;29.30;1.00
27781;DHT22;15167;1.318;103.762;2023-08-08T11:30:27;29.20;1.00
27781;DHT22;15167;1.318;103.762;2023-08-08T11:32:54;29.20;99.90
27781;DHT22;15167;1.318;103.762;2023-08-08T11:35:25;29.20;1.00
27781;DHT22;15167;1.318;103.762;2023-08-08T11:37:54;29.20;1.00
27781;DHT22;15167;1.318;103.762;2023-08-08T11:40:23;29.20;1.00
27781;DHT22;15167;1.318;103.762;2023-08-08T11:42:51;29.20;1.00
27781;DHT22;15167;1.318;103.762;2023-08-08T11:45:18;29.20;1.00
27781;DHT22;15167;1.318;103.762;2023-08-08T11:47:49;29.10;1.00
27781;DHT22;15167;1.318;103.762;2023-08-08T11:50:18;29.20;1.00
27781;DHT22;15167;1.318;103.762;2023-08-08T11:52:46;29.20;99.90
27781;DHT22;15167;1.318;103.762;2023-08-08T11:55:13;29.30;99.90
27781;DHT22;15167;1.318;103.762;2023-08-08T11:57:40;29.20;99.90
27781;DHT22;15167;1.318;103.762;2023-08-08T12:00:08;29.20;99.90
27781;DHT22;15167;1.318;103.762;2023-08-08T12:02:35;29.20;1.00
27781;DHT22;15167;1.318;103.762;2023-08-08T12:05:28;29.20;1.00
27781;DHT22;15167;1.318;103.762;2023-08-08T12:07:55;29.20;99.90
27781;DHT22;15167;1.318;103.762;2023-08-08T12:10:24;29.20;1.00
27781;DHT22;15167;1.318;103.762;2023-08-08T12:12:56;29.10;1.00
27781;DHT22;15167;1.318;103.762;2023-08-08T12:15:36;29.10;1.00
27781;DHT22;15167;1.318;103.762;2023-08-08T12:18:03;29.10;1.00
27781;DHT22;15167;1.318;103.762;2023-08-08T12:20:31;29.10;1.00
27781;DHT22;15167;1.318;103.762;2023-08-08T12:22:58;29.00;1.00
27781;DHT22;15167;1.318;103.762;2023-08-08T12:25:25;29.00;1.00
27781;DHT22;15167;1.318;103.762;2023-08-08T12:27:52;29.00;1.00
27781;DHT22;15167;1.318;103.762;2023-08-08T12:30:18;29.00;1.00
27781;DHT22;15167;1.318;103.762;2023-08-08T12:32:45;29.10;1.00
27781;DHT22;15167;1.318;103.762;2023-08-08T12:35:11;29.10;1.00
27781;DHT22;15167;1.318;103.762;2023-08-08T12:37:38;29.10;1.00
27781;DHT22;15167;1.318;103.762;2023-08-08T12:40:05;29.10;1.00
27781;DHT22;15167;1.318;103.762;2023-08-08T12:42:32;29.00;1.00
27781;DHT22;15167;1.318;103.762;2023-08-08T12:44:58;29.00;1.00
27781;DHT22;15167;1.318;103.762;2023-08-08T12:47:25;28.90;1.00
27781;DHT22;15167;1.318;103.762;2023-08-08T12:49:52;28.90;1.00
27781;DHT22;15167;1.318;103.762;2023-08-08T12:52:19;28.90;1.00
27781;DHT22;15167;1.318;103.762;2023-08-08T12:54:45;28.90;1.00
27781;DHT22;15167;1.318;103.762;2023-08-08T12:57:12;28.80;1.00
27781;DHT22;15167;1.318;103.762;2023-08-08T12:59:39;28.80;1.00
27781;DHT22;15167;1.318;103.762;2023-08-08T13:02:06;28.70;1.00
27781;DHT22;15167;1.318;103.762;2023-08-08T13:04:32;28.70;1.00
27781;DHT22;15167;1.318;103.762;2023-08-08T13:06:59;28.70;1.00
27781;DHT22;15167;1.318;103.762;2023-08-08T13:09:26;28.70;1.00
27781;DHT22;15167;1.318;103.762;2023-08-08T13:11:52;28.70;1.00
27781;DHT22;15167;1.318;103.762;2023-08-08T13:14:19;28.70;1.00
27781;DHT22;15167;1.318;103.762;2023-08-08T13:16:45;28.70;1.00
27781;DHT22;15167;1.318;103.762;2023-08-08T13:19:12;28.70;1.00
27781;DHT22;15167;1.318;103.762;2023-08-08T13:21:38;28.70;1.00
27781;DHT22;15167;1.318;103.762;2023-08-08T13:24:06;28.70;1.00
27781;DHT22;15167;1.318;103.762;2023-08-08T13:26:33;28.70;1.00
27781;DHT22;15167;1.318;103.762;2023-08-08T13:28:59;28.70;1.00
27781;DHT22;15167;1.318;103.762;2023-08-08T13:31:26;28.70;1.00
27781;DHT22;15167;1.318;103.762;2023-08-08T13:33:52;28.70;1.00
27781;DHT22;15167;1.318;103.762;2023-08-08T13:36:19;28.70;1.00
27781;DHT22;15167;1.318;103.762;2023-08-08T13:38:45;28.70;1.00
27781;DHT22;15167;1.318;103.762;2023-08-08T13:41:12;28.70;1.00
27781;DHT22;15167;1.318;103.762;2023-08-08T13:43:39;28.70;1.00
27781;DHT22;15167;1.318;103.762;2023-08-08T13:46:05;28.70;1.00
27781;DHT22;15167;1.318;103.762;2023-08-08T13:48:36;28.70;1.00
27781;DHT22;15167;1.318;103.762;2023-08-08T13:51:03;28.70;1.00
27781;DHT22;15167;1.318;103.762;2023-08-08T13:53:29;28.70;1.00
27781;DHT22;15167;1.318;103.762;2023-08-08T13:55:56;28.70;1.00
27781;DHT22;15167;1.318;103.762;2023-08-08T13:58:22;28.70;1.00
27781;DHT22;15167;1.318;103.762;2023-08-08T14:00:49;28.60;1.00
27781;DHT22;15167;1.318;103.762;2023-08-08T14:03:16;28.60;1.00
27781;DHT22;15167;1.318;103.762;2023-08-08T14:05:43;28.60;1.00
27781;DHT22;15167;1.318;103.762;2023-08-08T14:08:10;28.60;1.00
27781;DHT22;15167;1.318;103.762;2023-08-08T14:10:37;28.60;1.00
27781;DHT22;15167;1.318;103.762;2023-08-08T14:13:04;28.60;1.00
27781;DHT22;15167;1.318;103.762;2023-08-08T14:15:30;28.60;1.00
27781;DHT22;15167;1.318;103.762;2023-08-08T14:17:59;28.60;1.00
27781;DHT22;15167;1.318;103.762;2023-08-08T14:20:26;28.50;1.00
27781;DHT22;15167;1.318;103.762;2023-08-08T14:22:53;28.50;1.00
27781;DHT22;15167;1.318;103.762;2023-08-08T14:25:20;28.50;3.70
27781;DHT22;15167;1.318;103.762;2023-08-08T14:27:47;28.50;23.10
27781;DHT22;15167;1.318;103.762;2023-08-08T14:30:13;28.50;32.60
27781;DHT22;15167;1.318;103.762;2023-08-08T14:32:40;28.50;47.50
27781;DHT22;15167;1.318;103.762;2023-08-08T14:35:07;28.40;59.40
27781;DHT22;15167;1.318;103.762;2023-08-08T14:37:35;28.40;86.40
27781;DHT22;15167;1.318;103.762;2023-08-08T14:40:02;28.30;90.40
27781;DHT22;15167;1.318;103.762;2023-08-08T14:42:29;28.30;99.90
27781;DHT22;15167;1.318;103.762;2023-08-08T14:44:56;28.30;98.90
27781;DHT22;15167;1.318;103.762;2023-08-08T14:47:22;28.30;99.90
27781;DHT22;15167;1.318;103.762;2023-08-08T14:49:49;28.30;99.90
27781;DHT22;15167;1.318;103.762;2023-08-08T14:52:17;28.30;94.60
27781;DHT22;15167;1.318;103.762;2023-08-08T14:54:43;28.30;99.80
27781;DHT22;15167;1.318;103.762;2023-08-08T14:57:10;28.40;95.70
27781;DHT22;15167;1.318;103.762;2023-08-08T14:59:37;28.40;97.70
27781;DHT22;15167;1.318;103.762;2023-08-08T15:02:03;28.40;98.10
27781;DHT22;15167;1.318;103.762;2023-08-08T15:04:30;28.40;98.30
27781;DHT22;15167;1.318;103.762;2023-08-08T15:06:56;28.40;99.90
27781;DHT22;15167;1.318;103.762;2023-08-08T15:09:23;28.40;99.90
27781;DHT22;15167;1.318;103.762;2023-08-08T15:11:50;28.40;85.40
27781;DHT22;15167;1.318;103.762;2023-08-08T15:14:16;28.40;53.40
27781;DHT22;15167;1.318;103.762;2023-08-08T15:16:49;28.40;55.60
27781;DHT22;15167;1.318;103.762;2023-08-08T15:19:16;28.40;52.60
27781;DHT22;15167;1.318;103.762;2023-08-08T15:21:42;28.40;39.10
27781;DHT22;15167;1.318;103.762;2023-08-08T15:24:09;28.30;48.90
27781;DHT22;15167;1.318;103.762;2023-08-08T15:26:35;28.30;51.20
27781;DHT22;15167;1.318;103.762;2023-08-08T15:29:02;28.30;54.00